Time;durP1;ratioP1;P1;durP2;ratioP2;P2;SDS_P1;SDS_P2;PMS_P1;PMS_P2;Temp;Humidity;BMP_temperature;BMP_pressure;BME280_temperature;BME280_humidity;BME280_pressure;Samples;Min_cycle;Max_cycle;Signal;HPM_P1;HPM_P2
2021/07/09 00:00:32;;;;;;;13.32;12.18;;;;;;;18.19;92.48;100181.34;10545795;28;20032;-70
2021/07/09 00:05:33;;;;;;;12.10;11.20;;;;;;;18.31;91.51;100187.75;10543453;28;20044;-70
2021/07/09 00:10:35;;;;;;;14.02;13.02;;;;;;;18.07;93.21;100187.44;10544234;28;20052;-71
2021/07/09 00:15:37;;;;;;;11.90;11.20;;;;;;;18.25;92.90;100182.81;10543525;28;20043;-69
2021/07/09 00:20:39;;;;;;;12.25;11.45;;;;;;;18.22;91.93;100180.31;10543873;28;20036;-70
2021/07/09 00:25:41;;;;;;;13.63;12.73;;;;;;;18.06;92.95;100173.28;10526515;28;20158;-70
2021/07/09 00:30:42;;;;;;;13.65;12.73;;;;;;;18.02;93.48;100193.03;10543600;28;20048;-70
2021/07/09 00:35:44;;;;;;;13.75;12.77;;;;;;;18.01;93.76;100191.31;10544933;28;20105;-71
2021/07/09 00:40:45;;;;;;;12.77;10.15;;;;;;;18.06;94.28;100172.41;10543809;28;20047;-70
2021/07/09 00:45:47;;;;;;;12.18;11.35;;;;;;;18.06;93.44;100172.41;10543534;28;20044;-69
2021/07/09 00:50:49;;;;;;;13.02;12.00;;;;;;;18.03;93.95;100157.50;10543206;28;20060;-70
2021/07/09 00:55:51;;;;;;;11.77;11.07;;;;;;;17.93;94.50;100153.69;10543185;28;20044;-70
2021/07/09 01:00:54;;;;;;;9.90;9.20;;;;;;;18.14;93.17;100160.34;10524518;28;20105;-70
2021/07/09 01:05:56;;;;;;;11.15;10.50;;;;;;;18.02;93.70;100160.28;10541042;28;20044;-70
2021/07/09 01:10:57;;;;;;;12.77;11.98;;;;;;;18.02;93.55;100150.47;10542178;28;20055;-69
2021/07/09 01:15:59;;;;;;;13.57;12.77;;;;;;;17.88;94.55;100130.03;10542517;28;20406;-71
2021/07/09 01:21:07;;;;;;;14.55;13.45;;;;;;;17.84;95.08;100131.19;10542680;28;20044;-69
2021/07/09 01:26:09;;;;;;;14.90;14.00;;;;;;;17.97;94.76;100122.44;10541976;28;20032;-70
2021/07/09 01:31:11;;;;;;;12.93;11.93;;;;;;;18.05;94.05;100113.03;10542095;28;20115;-69
2021/07/09 01:36:13;;;;;;;12.52;11.73;;;;;;;18.06;93.74;100129.84;10541222;28;20051;-69
2021/07/09 01:41:16;;;;;;;11.77;10.88;;;;;;;18.30;91.76;100146.13;10540940;28;20039;-69
2021/07/09 01:46:18;;;;;;;11.70;10.90;;;;;;;18.33;91.63;100149.44;10541679;28;20520;-69
2021/07/09 01:51:20;;;;;;;10.20;9.32;;;;;;;18.26;91.94;100149.91;10540883;28;20043;-69
2021/07/09 01:56:21;;;;;;;11.40;10.70;;;;;;;18.24;92.33;100152.69;10540872;28;20099;-69
2021/07/09 02:01:23;;;;;;;9.75;9.25;;;;;;;18.35;91.98;100152.84;10523365;28;20444;-69
2021/07/09 02:06:24;;;;;;;10.30;9.63;;;;;;;18.18;92.51;100168.16;10541270;28;20486;-69
2021/07/09 02:11:26;;;;;;;11.93;11.02;;;;;;;18.06;93.54;100167.97;10541039;28;20058;-69
2021/07/09 02:16:28;;;;;;;9.75;9.15;;;;;;;17.93;94.91;100164.34;10541555;28;20474;-68
2021/07/09 02:21:29;;;;;;;8.15;7.68;;;;;;;17.95;95.60;100149.13;10541218;28;20465;-68
2021/07/09 02:26:31;;;;;;;10.10;9.50;;;;;;;17.94;95.91;100136.78;10540068;28;20388;-68
2021/07/09 02:31:33;;;;;;;9.93;9.32;;;;;;;17.92;96.42;100120.06;10540590;28;20050;-68
2021/07/09 02:36:35;;;;;;;10.18;9.52;;;;;;;17.86;96.39;100093.84;10544826;28;20047;-69
2021/07/09 02:41:38;;;;;;;11.05;10.40;;;;;;;17.82;96.69;100087.84;10548632;28;20490;-68
2021/07/09 02:46:40;;;;;;;10.98;10.27;;;;;;;17.79;97.11;100082.72;10548553;28;20040;-69
2021/07/09 02:51:42;;;;;;;9.73;8.98;;;;;;;17.76;97.63;100059.00;10547983;28;20052;-68
2021/07/09 02:56:44;;;;;;;8.57;8.07;;;;;;;17.76;97.89;100048.34;10548042;28;20048;-68
2021/07/09 03:01:46;;;;;;;7.35;6.90;;;;;;;17.64;97.82;100014.50;10547694;28;20093;-68
2021/07/09 03:06:47;;;;;;;7.20;6.80;;;;;;;17.67;97.82;99989.56;10547896;28;20131;-68
2021/07/09 03:11:49;;;;;;;5.18;4.90;;;;;;;17.75;97.14;99976.66;10548591;28;20048;-68
2021/07/09 03:16:50;;;;;;;5.22;4.95;;;;;;;17.91;95.70;99977.41;10548374;28;20032;-69
2021/07/09 03:21:52;;;;;;;7.00;6.60;;;;;;;17.81;95.46;99929.28;10547258;28;20383;-69
2021/07/09 03:26:54;;;;;;;9.55;8.75;;;;;;;17.54;97.23;99876.03;10546799;28;20036;-69
2021/07/09 03:31:55;;;;;;;10.25;9.65;;;;;;;17.53;97.78;99791.94;10547364;28;20490;-69
2021/07/09 03:36:57;;;;;;;9.20;8.60;;;;;;;17.85;97.00;99861.66;10546752;28;20054;-69
2021/07/09 03:41:59;;;;;;;8.00;7.50;;;;;;;17.86;96.22;99983.00;10548856;28;20040;-69
2021/07/09 03:47:00;;;;;;;6.68;6.18;;;;;;;17.88;96.47;99986.44;10547177;28;20098;-69
2021/07/09 03:52:02;;;;;;;5.00;4.60;;;;;;;17.93;95.93;99983.50;10548580;28;20044;-67
2021/07/09 03:57:04;;;;;;;4.07;3.88;;;;;;;17.98;95.18;99977.88;10547585;28;20454;-68
2021/07/09 04:02:06;;;;;;;3.95;3.75;;;;;;;17.85;95.79;99969.81;10547239;28;20555;-68
2021/07/09 04:07:08;;;;;;;3.42;3.22;;;;;;;18.17;93.91;99966.91;10547027;28;20040;-68
2021/07/09 04:12:10;;;;;;;3.30;3.10;;;;;;;17.98;94.41;99970.75;10547404;28;20054;-68
2021/07/09 04:17:11;;;;;;;2.55;2.40;;;;;;;18.06;94.40;99973.78;10546882;28;20057;-68
2021/07/09 04:22:13;;;;;;;2.22;2.13;;;;;;;18.03;95.02;99970.47;10545540;28;20119;-68
2021/07/09 04:27:15;;;;;;;2.30;2.10;;;;;;;18.12;94.96;99951.25;10546795;28;20036;-68
2021/07/09 04:32:16;;;;;;;2.22;2.13;;;;;;;17.98;94.90;99946.81;10545227;28;20501;-68
2021/07/09 04:37:19;;;;;;;1.77;1.67;;;;;;;18.02;95.19;99948.34;10546180;28;20040;-68
2021/07/09 04:42:20;;;;;;;2.40;2.20;;;;;;;18.00;94.71;99955.53;10545234;28;20044;-68
2021/07/09 04:47:22;;;;;;;2.22;2.13;;;;;;;17.88;94.96;99967.84;10544889;28;20044;-68
2021/07/09 04:52:24;;;;;;;2.60;2.50;;;;;;;17.96;95.19;99963.81;10544452;28;20413;-68
2021/07/09 04:57:25;;;;;;;4.22;3.92;;;;;;;18.05;93.84;99958.75;10543429;28;20102;-70
2021/07/09 05:02:27;;;;;;;4.13;3.92;;;;;;;18.10;93.34;99961.13;10544009;28;20055;-69
2021/07/09 05:07:28;;;;;;;4.72;4.53;;;;;;;17.99;94.55;99964.47;10542464;28;20040;-68
2021/07/09 05:12:30;;;;;;;6.10;5.78;;;;;;;17.99;94.10;99961.81;10544752;28;20040;-68
2021/07/09 05:17:31;;;;;;;7.93;7.53;;;;;;;17.94;94.56;99960.41;10543927;28;20063;-68
2021/07/09 05:22:33;;;;;;;10.00;9.40;;;;;;;17.81;95.62;99955.88;10543459;28;20490;-68
2021/07/09 05:27:35;;;;;;;9.75;9.18;;;;;;;18.13;93.51;99967.09;10541803;28;20050;-69
2021/07/09 05:32:39;;;;;;;9.35;8.85;;;;;;;18.27;91.78;99960.91;10543795;28;20048;-69
2021/07/09 05:37:41;;;;;;;11.25;10.48;;;;;;;17.99;94.18;99953.84;10543054;28;20431;-69
2021/07/09 05:42:43;;;;;;;11.07;10.40;;;;;;;17.88;95.91;99959.84;10541833;28;20094;-69
2021/07/09 05:47:46;;;;;;;12.35;11.65;;;;;;;17.96;95.54;99963.81;10541964;28;20043;-68
2021/07/09 05:52:50;;;;;;;10.73;10.02;;;;;;;18.10;94.73;99959.31;10542191;28;20040;-68
2021/07/09 05:57:52;;;;;;;10.07;9.48;;;;;;;18.00;95.24;99950.22;10542813;28;20039;-69
2021/07/09 06:02:53;;;;;;;12.52;11.82;;;;;;;18.08;94.95;99957.72;10541881;28;20105;-68
2021/07/09 06:07:55;;;;;;;11.65;10.93;;;;;;;18.44;92.36;99965.13;10543102;28;20047;-69
2021/07/09 06:12:56;;;;;;;13.15;12.35;;;;;;;18.14;93.93;99955.50;10542687;28;20056;-68
2021/07/09 06:17:58;;;;;;;12.55;11.77;;;;;;;18.24;93.70;99954.91;10524650;28;20052;-68
2021/07/09 06:23:00;;;;;;;13.70;12.70;;;;;;;18.00;95.77;99952.88;10542372;28;20052;-69
2021/07/09 06:28:01;;;;;;;13.90;13.07;;;;;;;17.99;96.75;99961.81;10541643;28;20052;-68
2021/07/09 06:33:03;;;;;;;9.57;8.98;;;;;;;18.14;97.11;99955.50;10540047;28;20109;-67
2021/07/09 06:38:06;;;;;;;8.68;8.07;;;;;;;18.59;93.72;99953.50;10541458;28;20040;-68
2021/07/09 06:43:07;;;;;;;8.93;8.32;;;;;;;18.85;91.65;99945.56;10542116;28;20229;-68
2021/07/09 06:48:09;;;;;;;8.40;7.90;;;;;;;18.84;90.88;99938.56;10541263;28;20051;-69
2021/07/09 06:53:11;;;;;;;8.80;8.27;;;;;;;18.63;92.50;99932.81;10544093;28;20048;-68
2021/07/09 06:58:12;;;;;;;7.40;6.90;;;;;;;19.23;89.91;99932.31;10542442;28;20444;-69
2021/07/09 07:03:14;;;;;;;9.05;8.35;;;;;;;19.12;91.09;99924.19;10540753;28;20048;-68
2021/07/09 07:08:18;;;;;;;8.23;7.63;;;;;;;19.18;91.41;99920.28;10541791;28;20406;-69
2021/07/09 07:13:21;;;;;;;7.05;6.55;;;;;;;19.27;89.37;99919.63;10542800;28;20040;-68
2021/07/09 07:18:23;;;;;;;6.70;6.25;;;;;;;19.30;88.57;99920.28;10541879;28;20486;-69
2021/07/09 07:23:24;;;;;;;5.55;5.15;;;;;;;19.54;86.78;99912.34;10548640;28;20097;-67
2021/07/09 07:28:26;;;;;;;7.30;6.60;;;;;;;19.65;87.84;99907.13;10547961;28;20036;-68
2021/07/09 07:33:41;;;;;;;5.63;5.32;;;;;;;19.89;86.60;99899.19;10549455;28;20076;-68
2021/07/09 07:38:48;;;;;;;8.93;8.38;;;;;;;19.98;84.21;99899.50;10547876;28;20227;-68
2021/07/09 07:43:49;;;;;;;9.95;9.35;;;;;;;19.71;86.55;99891.69;10549722;28;20093;-68
2021/07/09 07:48:51;;;;;;;8.68;8.10;;;;;;;19.99;85.52;99896.72;10545859;28;20040;-68
2021/07/09 07:53:54;;;;;;;9.25;8.65;;;;;;;20.04;84.14;99889.22;10547664;28;20124;-68
2021/07/09 07:58:56;;;;;;;11.75;10.88;;;;;;;20.15;83.63;99883.94;10546428;28;20043;-69
2021/07/09 08:03:58;;;;;;;7.85;7.25;;;;;;;19.91;84.02;99886.59;10545931;28;20063;-68
2021/07/09 08:08:59;;;;;;;8.20;7.60;;;;;;;20.08;84.64;99885.34;10545631;28;20036;-70
2021/07/09 08:14:01;;;;;;;6.93;6.47;;;;;;;20.33;84.03;99886.22;10545789;28;20104;-69
2021/07/09 08:19:03;;;;;;;7.35;6.85;;;;;;;21.04;82.12;99874.56;10544861;28;20387;-70
2021/07/09 08:24:04;;;;;;;6.35;5.95;;;;;;;21.53;75.67;99880.59;10545205;28;20059;-68
2021/07/09 08:29:06;;;;;;;6.32;5.93;;;;;;;21.29;79.92;99883.31;10544748;28;20547;-70
2021/07/09 08:34:25;;;;;;;5.43;5.13;;;;;;;21.04;79.39;99890.59;10542347;28;20078;-69
2021/07/09 08:39:26;;;;;;;5.90;5.60;;;;;;;20.88;78.74;99888.25;10544805;28;20040;-70
2021/07/09 08:44:29;;;;;;;5.28;4.88;;;;;;;20.91;80.11;99884.50;10544144;28;20075;-70
2021/07/09 08:49:30;;;;;;;4.70;4.40;;;;;;;21.05;79.93;99896.78;10543753;28;20144;-69
2021/07/09 08:54:32;;;;;;;4.40;4.10;;;;;;;21.12;79.16;99896.22;10543616;28;20048;-70
2021/07/09 08:59:34;;;;;;;4.85;4.38;;;;;;;21.21;77.28;99900.00;10543217;28;20040;-70
2021/07/09 09:04:37;;;;;;;5.30;5.00;;;;;;;21.41;77.22;99903.78;10542883;28;20425;-69
2021/07/09 09:09:40;;;;;;;4.63;4.32;;;;;;;21.50;76.45;99911.09;10542685;28;20044;-70
2021/07/09 09:14:44;;;;;;;5.28;4.90;;;;;;;21.54;78.18;99907.19;10542694;28;20048;-70
2021/07/09 09:20:13;;;;;;;4.40;4.10;;;;;;;22.25;78.47;99898.84;10543354;28;20441;-71
2021/07/09 09:25:16;;;;;;;5.65;3.53;;;;;;;23.66;71.72;99896.59;10543267;28;20043;-70
2021/07/09 09:30:20;;;;;;;4.40;4.00;;;;;;;23.90;67.97;99892.69;10542215;28;20040;-70
2021/07/09 09:35:27;;;;;;;3.30;3.10;;;;;;;24.58;65.50;99890.16;10542729;28;20470;-70
2021/07/09 09:40:29;;;;;;;3.15;2.95;;;;;;;25.16;62.77;99877.47;10538096;28;20036;-71
2021/07/09 09:45:31;;;;;;;4.70;3.15;;;;;;;24.34;65.40;99883.28;10534686;28;20529;-71
2021/07/09 09:50:44;;;;;;;3.90;3.60;;;;;;;23.85;66.34;99877.00;10540891;28;20072;-71
2021/07/09 09:55:45;;;;;;;3.90;3.63;;;;;;;23.31;68.38;99866.63;10541635;28;20533;-71
2021/07/09 10:00:51;;;;;;;4.70;4.25;;;;;;;22.65;71.49;99856.19;10540771;28;20048;-72
2021/07/09 10:05:53;;;;;;;4.63;4.32;;;;;;;22.07;75.30;99858.34;10540664;28;20077;-70
2021/07/09 10:10:56;;;;;;;5.43;4.93;;;;;;;21.85;79.75;99840.53;10540460;28;20089;-70
2021/07/09 10:15:58;;;;;;;7.93;4.70;;;;;;;22.04;78.13;99851.41;10540678;28;20048;-70
2021/07/09 10:21:00;;;;;;;5.85;5.35;;;;;;;21.97;79.00;99855.59;10540437;28;20048;-69
2021/07/09 10:26:02;;;;;;;4.65;4.35;;;;;;;22.03;78.00;99836.34;10531525;28;20410;-70
2021/07/09 10:31:04;;;;;;;5.43;5.03;;;;;;;22.73;78.63;99837.63;10539659;28;20093;-71
2021/07/09 10:36:07;;;;;;;5.03;4.72;;;;;;;23.11;73.42;99858.50;10539917;28;20173;-71
2021/07/09 10:41:18;;;;;;;6.88;6.38;;;;;;;22.52;76.44;99852.84;10538941;28;20036;-71
2021/07/09 10:46:32;;;;;;;7.00;6.28;;;;;;;21.87;78.47;99860.84;10539641;28;20106;-71
2021/07/09 10:51:48;;;;;;;7.65;7.07;;;;;;;21.34;81.47;99854.47;10540155;28;20036;-70
2021/07/09 10:57:20;;;;;;;7.90;7.20;;;;;;;21.71;81.43;99851.50;10543322;28;20044;-70
2021/07/09 11:02:59;;;;;;;6.20;5.85;;;;;;;22.73;81.88;99847.50;10546584;28;20056;-71
2021/07/09 11:08:33;;;;;;;2.60;2.50;;;;;;;23.11;72.24;99847.78;10547866;28;20363;-71
2021/07/09 11:13:40;;;;;;;2.00;1.90;;;;;;;23.63;67.10;99845.00;10545748;28;20557;-72
2021/07/09 11:18:57;;;;;;;1.95;1.60;;;;;;;23.51;65.93;99846.09;10546244;28;20042;-71
2021/07/09 11:24:09;;;;;;;3.58;1.63;;;;;;;23.40;68.32;99836.31;10545787;28;20059;-72
2021/07/09 11:29:30;;;;;;;2.05;1.63;;;;;;;23.24;71.05;99842.19;10545496;28;20046;-72
2021/07/09 11:34:49;;;;;;;1.45;1.33;;;;;;;23.53;69.22;99828.03;10545322;28;20051;-72
2021/07/09 11:39:53;;;;;;;0.70;0.70;;;;;;;24.25;63.57;99816.16;10545694;28;20036;-72
2021/07/09 11:44:59;;;;;;;0.40;0.40;;;;;;;24.65;61.04;99803.41;10545009;28;20046;-70
2021/07/09 11:50:15;;;;;;;0.30;0.30;;;;;;;25.25;60.10;99804.97;10545204;28;20039;-71
2021/07/09 11:55:26;;;;;;;1.30;0.35;;;;;;;25.60;54.99;99807.75;10546385;28;20047;-71
2021/07/09 12:00:27;;;;;;;1.75;0.30;;;;;;;25.27;57.78;99830.72;10545410;28;20039;-71
2021/07/09 12:05:32;;;;;;;0.90;0.40;;;;;;;25.04;61.32;99823.97;10544852;28;20501;-71
2021/07/09 12:10:37;;;;;;;2.43;0.33;;;;;;;25.33;56.52;99821.22;10542953;28;20044;-70
2021/07/09 12:15:39;;;;;;;0.50;0.40;;;;;;;25.04;59.10;99810.53;10545284;28;20413;-70
2021/07/09 12:20:43;;;;;;;1.65;0.40;;;;;;;24.85;55.68;99796.16;10544709;28;20048;-70
2021/07/09 12:25:50;;;;;;;0.75;0.32;;;;;;;24.51;57.10;99803.84;10543952;28;20040;-70
2021/07/09 12:30:57;;;;;;;0.35;0.35;;;;;;;24.40;58.13;99804.03;10543684;28;20116;-70
2021/07/09 12:36:02;;;;;;;1.27;0.40;;;;;;;24.34;57.74;99807.25;10543452;28;20059;-70
2021/07/09 12:41:08;;;;;;;3.90;0.60;;;;;;;23.36;60.64;99813.41;10541207;28;20068;-70
2021/07/09 12:46:19;;;;;;;1.90;0.35;;;;;;;22.89;61.40;99838.06;10543236;28;20095;-70
2021/07/09 12:51:29;;;;;;;1.45;0.47;;;;;;;22.62;63.36;99835.88;10542535;28;20512;-71
2021/07/09 12:56:34;;;;;;;4.43;0.60;;;;;;;22.66;63.93;99855.19;10542191;28;20043;-70
2021/07/09 13:01:38;;;;;;;1.13;0.38;;;;;;;22.51;62.72;99860.03;10542776;28;20048;-70
2021/07/09 13:06:39;;;;;;;1.13;0.35;;;;;;;22.12;63.17;99864.19;10541662;28;20139;-70
2021/07/09 13:11:50;;;;;;;0.75;0.60;;;;;;;21.85;62.55;99884.19;10540212;28;20052;-70
2021/07/09 13:16:54;;;;;;;2.83;0.80;;;;;;;21.36;63.91;99884.59;10541705;28;20044;-72
2021/07/09 13:21:56;;;;;;;2.03;0.80;;;;;;;21.06;63.54;99872.63;10541700;28;20050;-71
2021/07/09 13:26:59;;;;;;;1.52;0.70;;;;;;;21.14;61.24;99886.25;10541387;28;20035;-71
2021/07/09 13:32:02;;;;;;;0.60;0.60;;;;;;;21.10;61.25;99900.81;10540242;28;20454;-72
2021/07/09 13:37:12;;;;;;;0.85;0.80;;;;;;;21.15;62.26;99905.78;10532790;28;20071;-70
2021/07/09 13:42:14;;;;;;;1.35;0.80;;;;;;;21.41;60.01;99923.34;10539299;28;20052;-71
2021/07/09 13:47:17;;;;;;;0.95;0.80;;;;;;;21.34;61.24;99948.03;10540598;28;20044;-71
2021/07/09 13:52:23;;;;;;;1.42;0.60;;;;;;;21.42;58.75;99954.47;10540465;28;20051;-70
2021/07/09 13:57:25;;;;;;;1.05;0.70;;;;;;;21.09;58.53;99975.78;10539300;28;20044;-70
2021/07/09 14:02:27;;;;;;;1.08;0.45;;;;;;;20.24;60.91;99986.50;10541243;28;20059;-70
2021/07/09 14:07:29;;;;;;;3.45;0.50;;;;;;;19.36;63.58;99980.28;10539137;28;20036;-70
2021/07/09 14:12:30;;;;;;;0.40;0.40;;;;;;;19.02;63.01;99992.38;10538913;28;20048;-71
2021/07/09 14:17:35;;;;;;;0.85;0.38;;;;;;;18.88;64.03;100006.63;10537365;28;20028;-69
2021/07/09 14:22:38;;;;;;;0.52;0.40;;;;;;;18.82;64.44;100007.06;10536059;28;20048;-70
2021/07/09 14:27:40;;;;;;;0.63;0.50;;;;;;;18.41;65.63;100029.19;10534381;28;20059;-69
2021/07/09 14:32:44;;;;;;;0.80;0.80;;;;;;;18.27;65.78;100037.22;10546296;28;20407;-70
2021/07/09 14:37:46;;;;;;;1.85;0.70;;;;;;;18.26;65.63;100044.34;10552726;28;20539;-70
2021/07/09 14:42:49;;;;;;;0.90;0.90;;;;;;;17.87;67.06;100059.16;10552210;28;20048;-70
2021/07/09 14:47:51;;;;;;;0.85;0.85;;;;;;;17.79;67.53;100073.88;10550999;28;20417;-70
2021/07/09 14:52:53;;;;;;;2.35;1.00;;;;;;;17.62;68.05;100069.59;10549987;28;20090;-69
2021/07/09 14:57:55;;;;;;;1.20;1.20;;;;;;;17.20;69.41;100054.38;10551281;28;20040;-71
2021/07/09 15:02:57;;;;;;;1.20;1.10;;;;;;;17.38;70.35;100061.25;10553125;28;20044;-71
2021/07/09 15:07:59;;;;;;;1.70;0.90;;;;;;;17.54;69.54;100061.22;10551148;28;20044;-70
2021/07/09 15:13:01;;;;;;;0.50;0.50;;;;;;;17.77;68.21;100055.38;10551463;28;20490;-70
2021/07/09 15:18:20;;;;;;;1.27;0.50;;;;;;;17.57;68.18;100053.88;10553529;28;20444;-70
2021/07/09 15:23:21;;;;;;;0.85;0.40;;;;;;;17.41;69.43;100045.13;10552327;28;20054;-72
2021/07/09 15:28:28;;;;;;;0.65;0.65;;;;;;;17.40;69.48;100049.59;10552424;28;20044;-71
2021/07/09 15:33:29;;;;;;;1.10;0.60;;;;;;;17.32;69.41;100048.34;10552770;28;20048;-70
2021/07/09 15:38:31;;;;;;;0.82;0.60;;;;;;;16.97;70.71;100048.63;10552836;28;20478;-70
2021/07/09 15:43:32;;;;;;;2.33;0.80;;;;;;;16.78;72.02;100054.13;10549079;28;20094;-73
2021/07/09 15:48:35;;;;;;;0.68;0.47;;;;;;;16.63;72.42;100066.41;10545855;28;20040;-75
2021/07/09 15:53:36;;;;;;;0.90;0.52;;;;;;;16.51;72.72;100064.47;10544428;28;20070;-74
2021/07/09 15:58:38;;;;;;;1.00;0.90;;;;;;;16.45;72.67;100071.91;10542389;28;20102;-74
2021/07/09 16:03:39;;;;;;;0.60;0.50;;;;;;;16.74;72.11;100055.25;10543788;28;20044;-76
2021/07/09 16:08:41;;;;;;;0.80;0.40;;;;;;;16.77;71.70;100051.53;10544752;28;20097;-75
2021/07/09 16:13:42;;;;;;;2.28;0.40;;;;;;;16.79;73.31;100055.84;10544150;28;20520;-74
2021/07/09 16:18:44;;;;;;;0.50;0.40;;;;;;;16.70;73.25;100063.44;10544942;28;20050;-74
2021/07/09 16:23:45;;;;;;;0.40;0.40;;;;;;;16.68;73.68;100066.16;10545900;28;20090;-73
2021/07/09 16:28:47;;;;;;;0.20;0.20;;;;;;;16.51;73.17;100061.81;10545532;28;20044;-74
2021/07/09 16:33:49;;;;;;;0.50;0.30;;;;;;;16.51;72.97;100075.09;10544175;28;20166;-72
2021/07/09 16:38:51;;;;;;;1.55;0.30;;;;;;;16.83;72.24;100080.41;10544401;28;20040;-73
2021/07/09 16:43:52;;;;;;;0.45;0.30;;;;;;;16.80;71.16;100099.16;10543783;28;20105;-73
2021/07/09 16:48:54;;;;;;;0.55;0.30;;;;;;;16.86;71.02;100102.31;10543640;28;20074;-73
2021/07/09 16:53:55;;;;;;;0.60;0.38;;;;;;;16.85;71.14;100115.69;10544158;28;20406;-74
2021/07/09 16:58:57;;;;;;;0.30;0.30;;;;;;;16.78;71.92;100122.28;10544523;28;20066;-75
2021/07/09 17:03:59;;;;;;;0.20;0.20;;;;;;;16.91;70.74;100131.28;10543000;28;20428;-73
2021/07/09 17:09:00;;;;;;;0.63;0.40;;;;;;;16.88;70.79;100129.66;10544854;28;20052;-74
2021/07/09 17:14:02;;;;;;;0.40;0.40;;;;;;;16.81;71.44;100133.56;10543857;28;20036;-73
2021/07/09 17:19:04;;;;;;;0.30;0.30;;;;;;;16.62;72.31;100133.72;10542831;28;20119;-74
2021/07/09 17:24:06;;;;;;;0.60;0.20;;;;;;;16.49;72.05;100135.34;10544134;28;20043;-73
2021/07/09 17:29:07;;;;;;;0.30;0.30;;;;;;;16.41;73.15;100126.94;10544557;28;20093;-73
2021/07/09 17:34:09;;;;;;;1.05;0.40;;;;;;;16.50;72.36;100134.38;10545011;28;20089;-73
2021/07/09 17:39:24;;;;;;;0.70;0.60;;;;;;;16.39;73.57;100129.69;10544328;28;20051;-73
2021/07/09 17:44:27;;;;;;;0.68;0.60;;;;;;;16.38;72.82;100133.28;10543317;28;20048;-74
2021/07/09 17:49:29;;;;;;;0.75;0.60;;;;;;;16.36;73.07;100136.94;10545379;28;20032;-74
2021/07/09 17:54:34;;;;;;;0.70;0.70;;;;;;;16.32;73.41;100146.00;10545681;28;20456;-74
2021/07/09 17:59:36;;;;;;;1.90;0.60;;;;;;;16.17;73.35;100150.34;10545100;28;20058;-75
2021/07/09 18:04:37;;;;;;;1.35;0.73;;;;;;;16.19;72.81;100155.53;10542744;28;20044;-74
2021/07/09 18:09:39;;;;;;;1.08;0.63;;;;;;;16.09;74.09;100158.69;10543120;28;20107;-74
2021/07/09 18:14:40;;;;;;;1.25;0.70;;;;;;;15.99;73.78;100153.97;10543142;28;20058;-74
2021/07/09 18:19:42;;;;;;;0.88;0.88;;;;;;;16.09;74.42;100155.19;10542451;28;20050;-73
2021/07/09 18:24:44;;;;;;;2.53;0.90;;;;;;;15.80;76.69;100165.47;10543103;28;20058;-74
2021/07/09 18:29:46;;;;;;;1.23;0.80;;;;;;;15.68;76.10;100162.63;10542415;28;20040;-75
2021/07/09 18:34:48;;;;;;;1.05;0.60;;;;;;;15.56;77.14;100150.81;10541494;28;20040;-75
2021/07/09 18:39:50;;;;;;;1.17;0.70;;;;;;;15.48;77.23;100152.97;10541840;28;20404;-75
2021/07/09 18:44:51;;;;;;;0.82;0.63;;;;;;;15.42;77.18;100164.75;10542704;28;20105;-74
2021/07/09 18:49:53;;;;;;;1.02;0.52;;;;;;;15.37;76.29;100162.34;10542305;28;20082;-74
2021/07/09 18:54:54;;;;;;;0.57;0.57;;;;;;;15.35;76.83;100165.97;10542529;28;20048;-75
2021/07/09 18:59:56;;;;;;;1.00;0.80;;;;;;;15.24;77.65;100168.31;10525884;28;20040;-75
2021/07/09 19:04:58;;;;;;;1.60;0.88;;;;;;;15.21;77.57;100187.00;10542665;28;20056;-76
2021/07/09 19:10:00;;;;;;;1.20;1.10;;;;;;;15.27;77.14;100194.63;10543109;28;20036;-75
2021/07/09 19:15:01;;;;;;;1.00;1.00;;;;;;;15.28;76.97;100213.09;10543362;28;20065;-75
2021/07/09 19:20:03;;;;;;;1.13;0.95;;;;;;;15.36;76.80;100215.34;10522714;28;20040;-74
2021/07/09 19:25:06;;;;;;;1.10;1.00;;;;;;;15.31;76.62;100220.88;10552627;28;20398;-75
2021/07/09 19:30:10;;;;;;;1.10;0.90;;;;;;;15.30;76.75;100232.41;10531731;28;20123;-75
2021/07/09 19:35:13;;;;;;;2.05;0.93;;;;;;;15.36;76.46;100232.13;10549904;28;20040;-74
2021/07/09 19:40:19;;;;;;;1.92;1.00;;;;;;;15.38;76.65;100238.22;10549420;28;20032;-74
2021/07/09 19:45:22;;;;;;;2.38;1.13;;;;;;;15.42;76.17;100241.56;10548883;28;20494;-75
2021/07/09 19:50:24;;;;;;;1.33;1.23;;;;;;;15.39;76.53;100247.88;10548848;28;20051;-73
2021/07/09 19:55:27;;;;;;;1.35;1.25;;;;;;;15.45;76.02;100256.44;10548984;28;20523;-74
2021/07/09 20:00:29;;;;;;;2.45;1.45;;;;;;;15.31;77.08;100257.09;10548109;28;20070;-75
2021/07/09 20:05:32;;;;;;;1.75;1.27;;;;;;;15.33;77.55;100263.22;10547144;28;20108;-75
2021/07/09 20:10:34;;;;;;;3.47;1.40;;;;;;;15.29;78.09;100264.28;10546024;28;20120;-74
2021/07/09 20:15:36;;;;;;;2.08;1.33;;;;;;;15.30;78.15;100266.00;10547670;28;20082;-74
2021/07/09 20:20:42;;;;;;;1.75;1.20;;;;;;;15.32;78.51;100266.78;10547635;28;20044;-74
2021/07/09 20:25:43;;;;;;;4.88;1.35;;;;;;;15.43;77.86;100261.81;10529740;28;20044;-75
2021/07/09 20:30:45;;;;;;;1.83;1.40;;;;;;;15.32;77.62;100248.25;10531321;28;20044;-74
2021/07/09 20:35:48;;;;;;;4.25;2.42;;;;;;;15.41;77.01;100258.41;10547106;28;20044;-76
2021/07/09 20:41:08;;;;;;;3.13;2.40;;;;;;;15.28;77.15;100258.13;10547526;28;20387;-74
2021/07/09 20:46:09;;;;;;;2.00;1.90;;;;;;;15.33;77.28;100257.91;10547736;28;20098;-75
2021/07/09 20:51:11;;;;;;;2.50;2.05;;;;;;;15.36;77.76;100261.28;10547880;28;20048;-74
2021/07/09 20:56:13;;;;;;;1.80;1.70;;;;;;;15.33;77.90;100256.13;10547397;28;20076;-74
2021/07/09 21:01:15;;;;;;;2.17;1.98;;;;;;;15.24;79.38;100258.34;10545006;28;20059;-74
2021/07/09 21:06:17;;;;;;;2.58;2.38;;;;;;;15.21;79.00;100259.34;10546050;28;20044;-74
2021/07/09 21:11:19;;;;;;;3.10;2.03;;;;;;;15.27;78.59;100266.13;10544466;28;20039;-75
2021/07/09 21:16:21;;;;;;;3.63;1.85;;;;;;;15.25;78.11;100257.41;10529331;28;20051;-74
2021/07/09 21:21:23;;;;;;;2.25;1.70;;;;;;;15.26;78.70;100285.59;10545787;28;20051;-74
2021/07/09 21:26:25;;;;;;;2.85;2.13;;;;;;;15.27;78.70;100290.84;10546161;28;20494;-75
2021/07/09 21:31:26;;;;;;;3.33;1.77;;;;;;;15.20;78.58;100294.69;10545943;28;20474;-74
2021/07/09 21:36:28;;;;;;;3.45;1.60;;;;;;;15.13;78.92;100294.13;10546430;28;20040;-74
2021/07/09 21:41:30;;;;;;;1.83;1.70;;;;;;;15.21;78.25;100287.63;10545832;28;20040;-75
2021/07/09 21:46:32;;;;;;;1.95;1.85;;;;;;;15.17;78.46;100288.69;10543543;28;20048;-71
2021/07/09 21:51:33;;;;;;;2.63;1.65;;;;;;;15.21;78.26;100284.97;10543025;28;20051;-73
2021/07/09 21:56:35;;;;;;;2.40;1.45;;;;;;;15.19;77.92;100298.28;10543070;28;20052;-72
2021/07/09 22:01:37;;;;;;;3.25;1.40;;;;;;;15.29;77.36;100294.28;10524116;28;20040;-72
2021/07/09 22:06:40;;;;;;;2.70;1.40;;;;;;;15.25;77.42;100286.53;10541889;28;20498;-72
2021/07/09 22:11:41;;;;;;;1.83;1.40;;;;;;;15.33;76.83;100284.41;10544177;28;20044;-72
2021/07/09 22:16:43;;;;;;;1.63;1.52;;;;;;;15.27;76.65;100292.59;10542793;28;20048;-72
2021/07/09 22:21:45;;;;;;;1.48;1.30;;;;;;;15.33;76.76;100295.00;10540975;28;20043;-71
2021/07/09 22:26:47;;;;;;;5.72;1.40;;;;;;;15.30;77.02;100298.63;10542834;28;20367;-72
2021/07/09 22:31:49;;;;;;;3.30;1.45;;;;;;;15.26;77.40;100299.69;10540118;28;20562;-71
2021/07/09 22:36:52;;;;;;;1.23;1.20;;;;;;;15.33;76.45;100303.78;10523331;28;20101;-71
2021/07/09 22:41:53;;;;;;;6.60;1.45;;;;;;;15.22;76.90;100308.72;10539821;28;20176;-72
2021/07/09 22:46:55;;;;;;;3.28;1.60;;;;;;;15.32;76.60;100307.38;10540307;28;20044;-72
2021/07/09 22:51:56;;;;;;;2.70;1.40;;;;;;;15.25;77.15;100298.00;10539046;28;20053;-71
2021/07/09 22:56:59;;;;;;;3.15;1.38;;;;;;;15.17;77.27;100299.28;10547632;28;20093;-70
2021/07/09 23:02:01;;;;;;;2.50;1.23;;;;;;;15.25;76.70;100284.75;10547537;28;20041;-71
2021/07/09 23:07:03;;;;;;;3.17;1.13;;;;;;;15.19;77.11;100289.50;10545461;28;20059;-71
2021/07/09 23:12:05;;;;;;;2.72;1.27;;;;;;;15.19;76.87;100290.34;10546882;28;20040;-72
2021/07/09 23:17:06;;;;;;;2.28;1.45;;;;;;;15.19;76.62;100302.72;10547982;28;20052;-71